Time;durP1;ratioP1;P1;durP2;ratioP2;P2;SDS_P1;SDS_P2;PMS_P1;PMS_P2;Temp;Humidity;BMP_temperature;BMP_pressure;BME280_temperature;BME280_humidity;BME280_pressure;Samples;Min_cycle;Max_cycle;Signal;HPM_P1;HPM_P2
2023/06/26 00:00:43;;;;;;;;;3.00;2.50;;;;;26.81;35.43;101226.06;5062324;28;45341;-60
2023/06/26 00:03:08;;;;;;;;;3.75;3.00;;;;;26.77;35.28;101225.44;5062081;28;46163;-60
2023/06/26 00:05:34;;;;;;;;;3.75;3.75;;;;;26.75;35.32;101227.38;5066623;28;45485;-60
2023/06/26 00:08:00;;;;;;;;;7.00;5.00;;;;;26.71;35.93;101228.56;5062302;28;45428;-61
2023/06/26 00:10:27;;;;;;;;;3.75;3.75;;;;;26.68;35.78;101235.03;5065940;28;45555;-61
2023/06/26 00:12:52;;;;;;;;;3.75;3.00;;;;;26.65;35.79;101235.25;5063089;28;48015;-60
2023/06/26 00:15:17;;;;;;;;;4.50;3.00;;;;;26.56;35.84;101225.16;5080705;28;45166;-61
2023/06/26 00:17:44;;;;;;;;;4.00;2.75;;;;;26.56;36.00;101234.09;5082147;28;45225;-60
2023/06/26 00:20:10;;;;;;;;;2.00;2.00;;;;;26.52;36.21;101239.84;5080765;28;45475;-60
2023/06/26 00:22:35;;;;;;;;;3.00;3.00;;;;;26.49;35.53;101232.84;5081977;28;45510;-60
2023/06/26 00:25:01;;;;;;;;;3.50;3.00;;;;;26.46;35.51;101232.22;5082120;28;45302;-61
2023/06/26 00:27:26;;;;;;;;;4.75;3.50;;;;;26.47;35.65;101233.94;5082157;27;45311;-60
2023/06/26 00:29:52;;;;;;;;;4.25;3.00;;;;;26.44;36.21;101237.72;5071947;28;45387;-60
2023/06/26 00:32:18;;;;;;;;;2.00;2.00;;;;;26.43;36.43;101242.25;5077332;28;45801;-60
2023/06/26 00:34:43;;;;;;;;;5.50;3.25;;;;;26.40;35.99;101238.91;5071656;28;45544;-60
2023/06/26 00:37:08;;;;;;;;;4.75;4.75;;;;;26.35;36.42;101236.56;5072607;28;45296;-60
2023/06/26 00:39:34;;;;;;;;;2.00;2.00;;;;;26.30;36.47;101245.94;5065325;28;46687;-60
2023/06/26 00:41:59;;;;;;;;;3.00;2.00;;;;;26.25;35.84;101241.75;5081731;28;46099;-60
2023/06/26 00:44:24;;;;;;;;;3.75;2.75;;;;;26.20;36.18;101253.81;5081726;28;45228;-60
2023/06/26 00:46:50;;;;;;;;;3.00;2.75;;;;;26.15;36.36;101247.91;5081924;28;45363;-60
2023/06/26 00:49:15;;;;;;;;;3.00;3.00;;;;;26.09;36.74;101252.78;5063317;28;45212;-60
2023/06/26 00:51:41;;;;;;;;;3.50;3.50;;;;;26.04;36.65;101243.28;5060111;28;46220;-60
2023/06/26 00:54:06;;;;;;;;;7.25;3.25;;;;;26.02;36.25;101258.69;5061371;28;45422;-60
2023/06/26 00:56:32;;;;;;;;;4.50;4.00;;;;;25.99;36.25;101242.72;5061410;28;45294;-60
2023/06/26 00:58:58;;;;;;;;;4.00;3.00;;;;;25.94;36.17;101243.94;5061110;28;45336;-60
2023/06/26 01:01:25;;;;;;;;;4.00;3.25;;;;;25.90;36.33;101249.63;5061202;28;45307;-60
2023/06/26 01:03:52;;;;;;;;;2.75;2.75;;;;;25.88;36.96;101246.22;5061232;28;45467;-60
2023/06/26 01:06:20;;;;;;;;;1.75;1.75;;;;;25.84;36.71;101256.34;5061242;28;45326;-60
2023/06/26 01:08:46;;;;;;;;;3.50;2.50;;;;;25.78;36.65;101243.31;5061222;28;46054;-60
2023/06/26 01:11:13;;;;;;;;;4.00;3.75;;;;;25.78;36.90;101262.16;5061149;28;45264;-60
2023/06/26 01:13:40;;;;;;;;;4.00;2.25;;;;;25.76;36.40;101266.75;5060859;28;45276;-60
2023/06/26 01:16:06;;;;;;;;;7.50;4.75;;;;;25.73;36.31;101265.16;5061054;28;45296;-60
2023/06/26 01:18:34;;;;;;;;;3.25;3.00;;;;;25.69;36.40;101260.13;5060746;28;45350;-60
2023/06/26 01:21:01;;;;;;;;;3.00;3.00;;;;;25.67;36.49;101272.81;5059540;28;45328;-60
2023/06/26 01:24:04;;;;;;;;;3.00;3.00;;;;;25.63;37.15;101274.84;5060719;28;45427;-59
2023/06/26 01:26:35;;;;;;;;;2.25;2.25;;;;;25.58;36.78;101274.31;5060998;28;45330;-60
2023/06/26 01:29:02;;;;;;;;;3.25;3.25;;;;;25.52;37.27;101272.91;5060492;28;45412;-60
2023/06/26 01:31:30;;;;;;;;;5.00;3.00;;;;;25.52;36.84;101282.78;5060633;28;46310;-59
2023/06/26 01:33:58;;;;;;;;;6.00;3.00;;;;;25.50;37.47;101279.34;5060791;28;45253;-60
2023/06/26 01:36:24;;;;;;;;;5.25;4.50;;;;;25.47;37.27;101278.59;5074079;28;45347;-60
2023/06/26 01:38:50;;;;;;;;;5.50;3.75;;;;;25.45;37.09;101285.06;5060575;28;45641;-60
2023/06/26 01:41:17;;;;;;;;;4.25;4.25;;;;;25.45;37.48;101293.13;5079740;28;45486;-60
2023/06/26 01:43:58;;;;;;;;;4.75;4.00;;;;;25.44;37.13;101297.63;5080673;28;45473;-59
2023/06/26 01:46:29;;;;;;;;;5.00;5.00;;;;;25.43;37.52;101297.75;5080971;28;45161;-59
2023/06/26 01:49:01;;;;;;;;;3.00;3.00;;;;;25.45;37.77;101311.97;5063766;28;45260;-59
2023/06/26 01:51:35;;;;;;;;;4.50;3.50;;;;;25.43;37.08;101312.06;5068924;28;46117;-59
2023/06/26 01:54:02;;;;;;;;;6.50;4.50;;;;;25.42;37.80;101312.16;5063045;28;45326;-60
2023/06/26 01:56:28;;;;;;;;;5.00;4.50;;;;;25.39;37.63;101317.75;5060394;28;45398;-60
2023/06/26 01:58:55;;;;;;;;;7.25;7.25;;;;;25.38;37.75;101324.94;5073186;28;45507;-60
2023/06/26 02:01:21;;;;;;;;;8.00;7.00;;;;;25.37;37.86;101325.94;5060215;28;46082;-59
2023/06/26 02:03:46;;;;;;;;;8.50;7.00;;;;;25.36;37.31;101321.50;5060094;28;45187;-59
2023/06/26 02:06:11;;;;;;;;;9.00;6.50;;;;;25.35;37.84;101327.81;5060574;28;45234;-59
2023/06/26 02:08:37;;;;;;;;;8.00;8.00;;;;;25.35;37.49;101332.34;5073062;28;45465;-59
2023/06/26 02:11:02;;;;;;;;;9.25;7.00;;;;;25.33;37.58;101331.59;5060201;28;46301;-59
2023/06/26 02:13:27;;;;;;;;;10.00;9.00;;;;;25.31;37.58;101335.22;5059896;28;45292;-60
2023/06/26 02:15:53;;;;;;;;;7.50;7.50;;;;;25.26;37.64;101333.84;5060220;28;49194;-60
2023/06/26 02:18:18;;;;;;;;;14.25;12.25;;;;;25.21;37.77;101338.66;5060003;28;45521;-59
2023/06/26 02:20:43;;;;;;;;;8.50;8.00;;;;;25.15;37.99;101339.91;5059608;28;49699;-59
2023/06/26 02:23:09;;;;;;;;;9.25;9.25;;;;;25.09;38.32;101338.50;5059977;28;45292;-59
2023/06/26 02:25:35;;;;;;;;;9.00;9.00;;;;;25.06;37.75;101352.16;5060179;28;45534;-59
2023/06/26 02:28:00;;;;;;;;;10.75;9.25;;;;;25.04;37.94;101345.16;5058452;28;45552;-60
2023/06/26 02:30:25;;;;;;;;;9.25;6.25;;;;;25.01;38.33;101348.03;5059959;28;46170;-60
2023/06/26 02:32:50;;;;;;;;;9.75;7.25;;;;;24.98;38.34;101355.34;5059618;28;45394;-60
2023/06/26 02:35:16;;;;;;;;;9.25;7.00;;;;;24.91;38.34;101356.69;5060100;28;45299;-60
2023/06/26 02:37:41;;;;;;;;;7.50;6.25;;;;;24.84;38.13;101358.06;5059848;28;45421;-60
2023/06/26 02:40:09;;;;;;;;;9.75;8.00;;;;;24.77;38.44;101354.06;5068333;28;46531;-60
2023/06/26 02:42:35;;;;;;;;;9.75;9.00;;;;;24.72;38.37;101353.50;5079806;28;45391;-60
2023/06/26 02:45:00;;;;;;;;;7.75;6.75;;;;;24.66;38.73;101354.72;5078571;27;45373;-59
2023/06/26 02:47:25;;;;;;;;;6.75;6.00;;;;;24.62;38.54;101361.25;5076744;28;45231;-60
2023/06/26 02:49:51;;;;;;;;;6.25;4.50;;;;;24.58;38.52;101365.06;5059826;28;45268;-60
2023/06/26 02:52:16;;;;;;;;;5.25;5.00;;;;;24.54;38.28;101368.91;5071748;28;46345;-60
2023/06/26 02:54:41;;;;;;;;;6.25;3.50;;;;;24.49;38.45;101374.59;5059822;28;45232;-59
2023/06/26 02:57:07;;;;;;;;;7.00;3.75;;;;;24.42;38.50;101373.25;5058262;28;45308;-59
2023/06/26 02:59:32;;;;;;;;;4.25;4.25;;;;;24.34;38.52;101382.63;5059570;28;45227;-60
2023/06/26 03:01:57;;;;;;;;;5.00;4.00;;;;;24.29;39.02;101394.66;5059408;28;45277;-60
2023/06/26 03:04:23;;;;;;;;;1.50;1.25;;;;;24.24;38.74;101388.66;5059904;28;45493;-59
2023/06/26 03:06:48;;;;;;;;;1.50;1.50;;;;;24.18;38.44;101389.94;5059481;28;45208;-60
2023/06/26 03:09:14;;;;;;;;;3.75;3.00;;;;;24.14;38.43;101396.44;5059562;28;46091;-59
2023/06/26 03:11:39;;;;;;;;;2.75;2.50;;;;;24.14;38.79;101399.13;5059376;28;45244;-60
2023/06/26 03:14:05;;;;;;;;;3.00;3.00;;;;;24.13;38.50;101395.56;5059536;28;45449;-60
2023/06/26 03:16:31;;;;;;;;;2.75;1.50;;;;;24.09;38.74;101402.09;5059598;28;45357;-59
2023/06/26 03:18:56;;;;;;;;;3.50;2.00;;;;;24.09;38.52;101404.78;5057959;28;47699;-60
2023/06/26 03:21:21;;;;;;;;;1.75;1.75;;;;;24.06;38.46;101393.34;5059163;28;45323;-59
2023/06/26 03:23:47;;;;;;;;;2.00;1.00;;;;;24.02;38.69;101406.09;5058404;28;45346;-59
2023/06/26 03:26:14;;;;;;;;;3.50;1.00;;;;;23.98;38.48;101401.88;5059176;28;45304;-59
2023/06/26 03:28:40;;;;;;;;;3.00;3.00;;;;;23.95;38.73;101405.63;5059068;28;46133;-59
2023/06/26 03:31:05;;;;;;;;;2.75;2.00;;;;;23.94;38.46;101413.75;5059340;28;45363;-59
2023/06/26 03:33:30;;;;;;;;;2.25;1.50;;;;;23.89;38.56;101411.31;5067028;28;45384;-59
2023/06/26 03:35:55;;;;;;;;;1.50;1.00;;;;;23.84;38.68;101413.41;5063886;28;45161;-59
2023/06/26 03:38:22;;;;;;;;;2.75;2.75;;;;;23.80;38.75;101425.28;5059189;28;45394;-59
2023/06/26 03:40:47;;;;;;;;;1.25;1.25;;;;;23.75;38.69;101414.81;5072682;28;45232;-60
2023/06/26 03:43:13;;;;;;;;;5.00;2.75;;;;;23.69;38.60;101424.09;5079453;28;46072;-59
2023/06/26 03:45:38;;;;;;;;;1.75;1.75;;;;;23.65;38.79;101419.00;5082319;28;45572;-59
2023/06/26 03:48:03;;;;;;;;;3.25;2.00;;;;;23.58;38.71;101410.44;5074536;28;45332;-60
2023/06/26 03:50:29;;;;;;;;;2.00;2.00;;;;;23.54;38.77;101416.94;5062403;28;45387;-59
2023/06/26 03:52:54;;;;;;;;;2.00;2.00;;;;;23.52;38.88;101426.88;5062774;28;45213;-59
2023/06/26 03:55:22;;;;;;;;;3.75;2.00;;;;;23.50;38.79;101432.34;5062146;28;45585;-60
2023/06/26 03:57:47;;;;;;;;;3.00;3.00;;;;;23.47;38.94;101432.53;5062317;28;47109;-60
2023/06/26 04:00:13;;;;;;;;;3.00;2.00;;;;;23.43;39.17;101441.69;5061927;28;45402;-59
2023/06/26 04:02:39;;;;;;;;;4.75;1.00;;;;;23.40;39.02;101447.25;5062382;28;45224;-59
2023/06/26 04:05:04;;;;;;;;;1.25;1.25;;;;;23.37;39.01;101456.34;5061946;28;45333;-60
2023/06/26 04:07:30;;;;;;;;;3.00;2.25;;;;;23.34;38.84;101456.50;5062160;28;46027;-59
2023/06/26 04:09:56;;;;;;;;;4.00;3.25;;;;;23.31;38.97;101451.31;5061939;28;45242;-59
2023/06/26 04:12:21;;;;;;;;;3.50;2.50;;;;;23.29;39.21;101465.75;5062312;28;45217;-59
2023/06/26 04:14:47;;;;;;;;;5.50;3.00;;;;;23.25;39.35;101466.91;5060563;28;46274;-59
2023/06/26 04:17:12;;;;;;;;;1.00;1.00;;;;;23.20;39.48;101461.78;5060720;28;45967;-59
2023/06/26 04:19:37;;;;;;;;;2.75;2.75;;;;;23.19;39.58;101465.41;5061802;28;48703;-59
2023/06/26 04:22:03;;;;;;;;;2.75;2.00;;;;;23.15;39.63;101471.88;5062136;28;45393;-60
2023/06/26 04:24:29;;;;;;;;;3.00;2.00;;;;;23.10;39.46;101469.44;5061916;28;45246;-59
2023/06/26 04:26:56;;;;;;;;;4.25;2.50;;;;;23.08;39.94;101473.16;5061791;28;46293;-60
2023/06/26 04:29:25;;;;;;;;;3.50;2.50;;;;;23.04;39.48;101475.13;5061613;28;45398;-59
2023/06/26 04:31:51;;;;;;;;;4.00;2.00;;;;;23.00;39.57;101485.16;5061945;28;45279;-59
2023/06/26 04:34:16;;;;;;;;;4.75;3.00;;;;;22.99;39.35;101480.78;5061704;28;45189;-59
2023/06/26 04:36:46;;;;;;;;;4.50;3.00;;;;;22.96;39.95;101480.91;5061688;28;45918;-59
2023/06/26 04:39:11;;;;;;;;;6.75;4.75;;;;;22.95;39.74;101478.34;5063600;28;45504;-60
2023/06/26 04:41:37;;;;;;;;;3.25;3.25;;;;;22.92;39.88;101489.19;5081919;28;45512;-59
2023/06/26 04:44:02;;;;;;;;;7.75;4.00;;;;;22.91;40.25;101490.19;5081634;28;45337;-59
2023/06/26 04:46:28;;;;;;;;;3.00;3.00;;;;;22.89;40.21;101490.22;5081866;28;45484;-59
2023/06/26 04:48:53;;;;;;;;;7.00;6.25;;;;;22.87;40.14;101497.50;5066661;28;45325;-59
2023/06/26 04:51:20;;;;;;;;;6.25;3.00;;;;;22.84;40.36;101497.66;5061682;28;45331;-59
2023/06/26 04:53:45;;;;;;;;;4.00;3.00;;;;;22.82;40.34;101488.84;5061477;28;45311;-59
2023/06/26 04:56:11;;;;;;;;;3.00;3.00;;;;;22.79;39.97;101500.59;5061088;28;45476;-60
2023/06/26 04:58:36;;;;;;;;;5.00;4.00;;;;;22.77;40.47;101488.25;5073594;28;45351;-59
2023/06/26 05:01:01;;;;;;;;;3.25;3.25;;;;;22.73;40.49;101495.56;5060191;28;45426;-59
2023/06/26 05:03:27;;;;;;;;;4.00;3.00;;;;;22.69;40.25;101497.56;5061281;28;45232;-59
2023/06/26 05:05:53;;;;;;;;;4.75;3.75;;;;;22.67;40.19;101493.22;5061398;28;46417;-59
2023/06/26 05:08:22;;;;;;;;;2.25;2.25;;;;;22.66;40.79;101499.53;5061156;28;45622;-59
2023/06/26 05:10:48;;;;;;;;;5.50;4.00;;;;;22.65;40.76;101504.00;5061342;28;45240;-59
2023/06/26 05:13:17;;;;;;;;;3.25;3.00;;;;;22.63;40.38;101505.91;5060988;28;45326;-59
2023/06/26 05:15:43;;;;;;;;;4.00;4.00;;;;;22.60;40.57;101500.69;5059839;28;47079;-59
2023/06/26 05:18:08;;;;;;;;;8.50;5.00;;;;;22.58;40.83;101505.28;5060993;28;45524;-59
2023/06/26 05:20:35;;;;;;;;;2.25;2.25;;;;;22.58;40.63;101515.13;5060762;28;45734;-60
2023/06/26 05:23:02;;;;;;;;;3.50;3.00;;;;;22.54;41.03;101511.72;5060773;28;45418;-61
2023/06/26 05:25:29;;;;;;;;;6.00;3.00;;;;;22.49;40.98;101497.72;5060497;28;45445;-63
2023/06/26 05:27:55;;;;;;;;;4.50;3.50;;;;;22.53;40.88;101510.88;5060569;28;45421;-63
2023/06/26 05:30:21;;;;;;;;;4.00;3.00;;;;;22.52;40.62;101511.81;5060915;28;45228;-64
2023/06/26 05:32:48;;;;;;;;;5.00;3.00;;;;;22.50;40.84;101516.41;5059360;28;45248;-64
2023/06/26 05:35:13;;;;;;;;;3.25;3.25;;;;;22.50;40.90;101524.44;5060767;28;46951;-64
2023/06/26 05:37:40;;;;;;;;;2.00;2.00;;;;;22.48;41.30;101523.66;5060658;28;45200;-64
2023/06/26 05:40:06;;;;;;;;;3.25;3.00;;;;;22.47;41.37;101526.41;5068999;28;45265;-62
2023/06/26 05:42:31;;;;;;;;;3.75;3.75;;;;;22.44;41.67;101522.09;5080718;28;45264;-62
2023/06/26 05:44:57;;;;;;;;;5.50;4.00;;;;;22.43;41.43;101531.06;5080632;28;45394;-62
2023/06/26 05:47:23;;;;;;;;;4.00;4.00;;;;;22.38;41.44;101527.75;5077928;28;45264;-61
2023/06/26 05:49:48;;;;;;;;;6.25;4.25;;;;;22.35;41.65;101527.88;5060739;28;45317;-62
2023/06/26 05:52:14;;;;;;;;;4.75;3.00;;;;;22.35;41.55;101530.53;5060532;28;45283;-62
2023/06/26 05:54:40;;;;;;;;;6.00;3.50;;;;;22.34;41.48;101528.81;5060207;28;45320;-62
2023/06/26 05:57:06;;;;;;;;;4.50;4.50;;;;;22.37;41.66;101539.41;5055079;28;45264;-63
2023/06/26 05:59:32;;;;;;;;;5.75;5.25;;;;;22.37;41.23;101534.91;5059148;28;45457;-63
2023/06/26 06:01:58;;;;;;;;;3.75;3.75;;;;;22.36;41.28;101535.84;5065524;28;45399;-63
2023/06/26 06:04:23;;;;;;;;;4.00;4.00;;;;;22.35;41.30;101531.44;5070018;27;45416;-63
2023/06/26 06:06:49;;;;;;;;;8.50;5.25;;;;;22.35;41.70;101530.53;5067166;28;45298;-63
2023/06/26 06:09:15;;;;;;;;;5.25;4.25;;;;;22.35;41.42;101534.09;5078757;28;45348;-63
2023/06/26 06:11:40;;;;;;;;;5.25;5.25;;;;;22.36;41.59;101538.53;5070641;28;45545;-63
2023/06/26 06:14:06;;;;;;;;;8.00;6.00;;;;;22.38;41.51;101541.16;5069813;28;45312;-63
2023/06/26 06:16:31;;;;;;;;;7.00;6.25;;;;;22.41;41.86;101543.66;5067511;27;45354;-60
2023/06/26 06:18:56;;;;;;;;;6.00;4.50;;;;;22.43;41.27;101544.44;5068841;27;45465;-61
2023/06/26 06:21:22;;;;;;;;;7.25;4.75;;;;;22.44;41.70;101538.16;5066746;28;47789;-61
2023/06/26 06:23:47;;;;;;;;;7.25;4.25;;;;;22.47;41.77;101547.84;5070368;28;45438;-61
2023/06/26 06:26:12;;;;;;;;;6.50;5.50;;;;;22.50;41.48;101547.66;5064902;28;45326;-62
2023/06/26 06:28:38;;;;;;;;;7.25;5.50;;;;;22.52;41.43;101553.81;5059834;28;46212;-61
2023/06/26 06:31:04;;;;;;;;;10.25;7.00;;;;;22.57;41.81;101549.09;5056922;28;45419;-62
2023/06/26 06:33:29;;;;;;;;;5.75;5.75;;;;;22.61;41.38;101549.78;5058662;28;46032;-61
2023/06/26 06:35:54;;;;;;;;;7.25;4.50;;;;;22.62;41.54;101541.66;5058909;28;45493;-61
2023/06/26 06:38:20;;;;;;;;;6.50;4.00;;;;;22.69;41.78;101552.91;5059145;28;45516;-61
2023/06/26 06:40:45;;;;;;;;;7.75;6.00;;;;;22.70;41.53;101549.31;5074673;28;45433;-62
2023/06/26 06:43:10;;;;;;;;;7.00;5.50;;;;;22.73;41.78;101558.03;5079804;28;46408;-62
2023/06/26 06:45:37;;;;;;;;;6.75;6.75;;;;;22.72;41.38;101560.81;5079386;28;53373;-61
2023/06/26 06:48:03;;;;;;;;;8.50;6.50;;;;;22.70;41.59;101560.00;5072358;28;45418;-61
2023/06/26 06:50:28;;;;;;;;;7.25;6.25;;;;;22.70;41.56;101566.25;5059761;28;45182;-61
2023/06/26 06:52:53;;;;;;;;;7.50;7.00;;;;;22.71;41.52;101567.09;5059699;28;45247;-61
2023/06/26 06:55:19;;;;;;;;;7.00;6.00;;;;;22.71;42.04;101572.47;5059282;28;46800;-61
2023/06/26 06:57:44;;;;;;;;;6.50;4.75;;;;;22.71;42.05;101570.63;5059542;28;45184;-61
2023/06/26 07:00:12;;;;;;;;;6.00;6.00;;;;;22.74;41.71;101574.97;5059745;28;45396;-61
2023/06/26 07:02:38;;;;;;;;;6.25;5.00;;;;;22.78;41.75;101589.06;5059530;28;45413;-61
2023/06/26 07:05:05;;;;;;;;;5.25;5.00;;;;;22.77;41.63;101587.38;5059275;28;45299;-62
2023/06/26 07:07:32;;;;;;;;;8.50;8.50;;;;;22.79;41.99;101582.78;5059593;28;45236;-61
2023/06/26 07:09:59;;;;;;;;;21.00;19.75;;;;;22.80;41.58;101579.16;5059392;28;45330;-62
2023/06/26 07:12:25;;;;;;;;;62.25;50.75;;;;;22.81;41.66;101576.38;5058053;28;46987;-62
2023/06/26 07:14:50;;;;;;;;;145.50;135.00;;;;;22.82;41.81;101571.91;5059173;28;45420;-63
2023/06/26 07:17:15;;;;;;;;;81.67;74.67;;;;;22.82;42.03;101577.28;5059567;28;45441;-62
2023/06/26 07:19:40;;;;;;;;;18.25;16.50;;;;;22.83;41.66;101581.66;5060884;28;45497;-62
2023/06/26 07:22:06;;;;;;;;;8.00;6.00;;;;;22.84;41.62;101586.06;5062845;28;45367;-62
2023/06/26 07:24:32;;;;;;;;;4.25;4.25;;;;;22.84;41.50;101581.59;5062719;28;46628;-62
2023/06/26 07:26:57;;;;;;;;;6.00;5.25;;;;;22.84;41.48;101586.06;5062813;28;45371;-62
2023/06/26 07:29:22;;;;;;;;;5.00;4.25;;;;;22.85;41.37;101585.13;5062561;28;45392;-62
2023/06/26 07:31:48;;;;;;;;;6.00;6.00;;;;;22.83;41.50;101582.53;5060878;27;45273;-63
2023/06/26 07:34:13;;;;;;;;;5.50;5.00;;;;;22.88;41.25;101587.66;5072487;27;45516;-63
2023/06/26 07:36:39;;;;;;;;;2.00;2.00;;;;;22.89;41.36;101592.06;5072748;27;45328;-63
2023/06/26 07:39:04;;;;;;;;;6.25;4.50;;;;;22.91;41.57;101584.81;5064892;28;45501;-63
2023/06/26 07:41:31;;;;;;;;;6.75;5.25;;;;;22.92;41.33;101596.38;5075668;28;45488;-63
2023/06/26 07:43:58;;;;;;;;;3.25;3.25;;;;;22.93;41.79;101596.31;5075462;28;45226;-63
2023/06/26 07:46:23;;;;;;;;;5.50;5.50;;;;;22.93;41.47;101601.69;5070169;28;45155;-63
2023/06/26 07:48:49;;;;;;;;;6.00;4.25;;;;;22.96;41.58;101598.84;5081581;28;45231;-64
2023/06/26 07:51:14;;;;;;;;;5.25;4.75;;;;;22.95;41.38;101599.78;5068642;28;46462;-64
2023/06/26 07:53:39;;;;;;;;;6.25;5.00;;;;;22.98;41.47;101604.09;5070624;28;45228;-64
2023/06/26 07:56:05;;;;;;;;;6.75;5.00;;;;;22.98;41.47;101605.00;5075554;28;45371;-63
2023/06/26 07:58:30;;;;;;;;;7.50;3.75;;;;;22.98;41.64;101605.00;5074138;28;45385;-63
2023/06/26 08:00:56;;;;;;;;;6.25;4.75;;;;;23.02;41.49;101609.22;5080738;28;50350;-63
2023/06/26 08:03:21;;;;;;;;;6.00;4.50;;;;;22.98;41.61;101602.31;5087194;27;45278;-63
2023/06/26 08:05:46;;;;;;;;;5.00;5.00;;;;;23.03;41.45;101613.66;5067187;27;45469;-63
2023/06/26 08:08:12;;;;;;;;;4.75;4.00;;;;;23.05;41.33;101618.91;5074468;28;45316;-64
2023/06/26 08:10:37;;;;;;;;;7.00;7.00;;;;;23.08;41.43;101621.44;5068469;28;46101;-64
2023/06/26 08:13:02;;;;;;;;;6.00;5.75;;;;;23.12;41.45;101624.81;5070108;28;45323;-64
2023/06/26 08:15:28;;;;;;;;;5.75;5.75;;;;;23.14;41.12;101617.56;5079525;28;45475;-65
2023/06/26 08:17:53;;;;;;;;;7.00;4.25;;;;;23.13;41.41;101619.38;5069689;28;50030;-64
2023/06/26 08:20:19;;;;;;;;;7.25;6.00;;;;;23.15;41.32;101625.53;5075034;28;45399;-63
2023/06/26 08:22:45;;;;;;;;;6.00;6.00;;;;;23.17;40.90;101626.34;5073802;28;45330;-63
2023/06/26 08:25:10;;;;;;;;;6.00;5.00;;;;;23.16;41.24;101621.06;5068341;27;45406;-63
2023/06/26 08:27:36;;;;;;;;;8.25;7.00;;;;;23.16;41.06;101632.66;5069421;28;45319;-62
2023/06/26 08:30:01;;;;;;;;;6.00;6.00;;;;;23.18;41.07;101624.50;5074440;28;46221;-62
2023/06/26 08:32:26;;;;;;;;;7.00;6.00;;;;;23.19;41.22;101623.56;5072741;27;45252;-63
2023/06/26 08:34:52;;;;;;;;;10.00;7.50;;;;;23.19;41.24;101621.78;5080681;27;45214;-62
2023/06/26 08:37:17;;;;;;;;;7.50;5.75;;;;;23.23;41.09;101626.97;5068257;27;45257;-62
2023/06/26 08:39:42;;;;;;;;;5.00;5.00;;;;;23.21;40.87;101616.31;5075522;28;50627;-62
2023/06/26 08:42:08;;;;;;;;;6.00;4.00;;;;;23.26;40.88;101622.31;5081573;27;45345;-62
2023/06/26 08:44:33;;;;;;;;;4.50;3.50;;;;;23.27;41.06;101624.03;5081937;27;45203;-63
2023/06/26 08:47:03;;;;;;;;;5.75;5.00;;;;;23.30;41.00;101623.00;5073296;27;45460;-63
2023/06/26 08:49:37;;;;;;;;;7.75;4.75;;;;;23.31;40.78;101614.03;5080603;27;45420;-63
2023/06/26 08:52:13;;;;;;;;;6.00;5.25;;;;;23.32;40.69;101619.28;5079662;27;45468;-63
2023/06/26 08:54:45;;;;;;;;;5.25;5.00;;;;;23.36;40.79;101628.03;5079085;27;45278;-63
2023/06/26 08:57:11;;;;;;;;;4.00;4.00;;;;;23.40;40.74;101621.56;5094958;27;45441;-64
2023/06/26 08:59:36;;;;;;;;;4.00;4.00;;;;;23.44;40.75;101624.94;5082602;27;45337;-63
2023/06/26 09:02:02;;;;;;;;;7.00;5.75;;;;;23.51;40.74;101618.28;5080032;27;45520;-62
2023/06/26 09:04:28;;;;;;;;;6.25;3.50;;;;;23.57;40.66;101619.75;5079270;27;45325;-63
2023/06/26 09:06:53;;;;;;;;;3.25;2.50;;;;;23.63;40.66;101627.47;5071927;27;45535;-62
2023/06/26 09:09:20;;;;;;;;;3.75;3.00;;;;;23.66;40.44;101629.97;5075718;27;45382;-62
2023/06/26 09:11:45;;;;;;;;;8.25;5.00;;;;;23.68;40.22;101622.72;5073558;27;45432;-62
2023/06/26 09:14:13;;;;;;;;;1.25;1.25;;;;;23.71;40.19;101622.56;5075384;27;45248;-62
2023/06/26 09:16:44;;;;;;;;;4.25;4.25;;;;;23.75;40.35;101633.94;5079923;27;45484;-62
2023/06/26 09:19:11;;;;;;;;;4.25;3.00;;;;;23.76;40.18;101624.97;5078391;27;46048;-62
2023/06/26 09:21:39;;;;;;;;;6.00;4.00;;;;;23.81;39.80;101623.75;5078632;27;45408;-63
2023/06/26 09:24:06;;;;;;;;;6.50;6.50;;;;;23.85;39.76;101632.50;5078748;27;45201;-63
2023/06/26 09:26:32;;;;;;;;;4.00;4.00;;;;;23.86;40.18;101634.22;5077499;27;45393;-64
2023/06/26 09:28:57;;;;;;;;;5.75;4.25;;;;;23.92;39.96;101627.69;5069332;27;46208;-64
2023/06/26 09:31:23;;;;;;;;;5.50;4.00;;;;;23.94;39.96;101623.97;5074257;27;45377;-64
2023/06/26 09:33:57;;;;;;;;;5.75;4.50;;;;;23.98;39.71;101624.66;5071465;27;45392;-62
2023/06/26 09:36:24;;;;;;;;;5.00;5.00;;;;;24.00;39.82;101634.34;5073204;28;45463;-62
2023/06/26 09:38:50;;;;;;;;;3.50;3.50;;;;;24.02;39.71;101643.19;5068850;28;46339;-63
2023/06/26 09:41:17;;;;;;;;;4.00;4.00;;;;;24.05;39.54;101627.84;5069313;27;45420;-62
2023/06/26 09:43:47;;;;;;;;;4.75;3.75;;;;;24.08;39.20;101625.00;5070149;27;45208;-62
2023/06/26 09:46:26;;;;;;;;;4.50;4.00;;;;;24.08;39.43;101630.38;5071756;27;45298;-62
2023/06/26 09:49:11;;;;;;;;;2.50;2.50;;;;;24.14;39.20;101624.66;5068348;27;45514;-61
2023/06/26 09:51:37;;;;;;;;;5.25;5.25;;;;;24.17;39.14;101627.16;5065347;28;45433;-63
2023/06/26 09:54:04;;;;;;;;;4.25;4.25;;;;;24.19;39.22;101622.56;5065707;28;45398;-63
2023/06/26 09:56:30;;;;;;;;;4.00;4.00;;;;;24.24;39.17;101625.84;5070305;28;45597;-61
2023/06/26 09:58:57;;;;;;;;;4.75;3.50;;;;;24.26;39.11;101620.38;5068181;28;47122;-61
2023/06/26 10:01:24;;;;;;;;;3.50;3.25;;;;;24.28;38.73;101624.69;5066927;28;45374;-61
2023/06/26 10:03:49;;;;;;;;;4.50;3.50;;;;;24.29;38.77;101629.13;5071293;27;45354;-61
2023/06/26 10:06:36;;;;;;;;;4.00;4.00;;;;;24.29;39.13;101623.75;5067747;28;46217;-62
2023/06/26 10:09:03;;;;;;;;;4.50;4.25;;;;;24.38;38.68;101629.53;5075454;28;46023;-64
2023/06/26 10:11:44;;;;;;;;;4.00;4.00;;;;;24.43;38.55;101632.81;5069994;28;45433;-65
2023/06/26 10:14:11;;;;;;;;;3.75;3.75;;;;;24.46;38.67;101648.75;5059631;28;45576;-66
2023/06/26 10:16:39;;;;;;;;;2.50;2.00;;;;;24.45;38.68;101645.22;5059658;28;45273;-66
2023/06/26 10:19:07;;;;;;;;;7.00;5.75;;;;;24.51;38.49;101652.03;5067150;28;46192;-66
2023/06/26 10:21:35;;;;;;;;;4.50;4.00;;;;;24.55;37.95;101650.88;5068188;28;45554;-65
2023/06/26 10:24:03;;;;;;;;;4.00;4.00;;;;;24.59;38.26;101655.16;5069860;28;45264;-65
2023/06/26 10:26:30;;;;;;;;;5.75;4.50;;;;;24.60;38.19;101650.63;5070414;28;45371;-66
2023/06/26 10:28:57;;;;;;;;;4.50;3.00;;;;;24.65;38.00;101641.38;5068402;28;46407;-60
2023/06/26 10:31:26;;;;;;;;;3.00;3.00;;;;;24.67;37.89;101639.44;5067467;28;45488;-60
2023/06/26 10:33:52;;;;;;;;;6.00;4.25;;;;;24.70;38.00;101645.59;5067382;28;45300;-60
2023/06/26 10:36:19;;;;;;;;;4.00;4.00;;;;;24.74;37.80;101639.97;5068551;28;45351;-60
2023/06/26 10:38:50;;;;;;;;;4.25;3.00;;;;;24.81;37.83;101648.50;5068245;28;45420;-60
2023/06/26 10:41:19;;;;;;;;;4.00;3.50;;;;;24.88;37.65;101655.25;5072261;28;45223;-61
2023/06/26 10:43:46;;;;;;;;;5.00;3.00;;;;;24.94;37.64;101640.56;5069765;28;45454;-60
2023/06/26 10:46:15;;;;;;;;;2.50;2.50;;;;;25.05;37.35;101647.97;5074956;28;46226;-61
2023/06/26 10:49:13;;;;;;;;;5.00;2.50;;;;;25.22;37.42;101657.69;5068644;28;46394;-60
2023/06/26 10:51:45;;;;;;;;;3.00;3.00;;;;;25.35;37.54;101649.75;5053704;28;45360;-61
2023/06/26 10:54:15;;;;;;;;;3.00;3.00;;;;;25.48;37.08;101639.94;5071833;28;45452;-61
2023/06/26 10:56:50;;;;;;;;;6.00;4.00;;;;;25.58;37.08;101651.84;5072345;28;45314;-62
2023/06/26 10:59:26;;;;;;;;;3.00;3.00;;;;;25.73;37.13;101639.25;5078274;28;45930;-61
2023/06/26 11:02:04;;;;;;;;;7.25;3.00;;;;;25.87;37.12;101632.97;5069589;28;45413;-61
2023/06/26 11:04:51;;;;;;;;;5.00;3.00;;;;;26.02;36.54;101627.56;5074171;27;45310;-61
2023/06/26 11:07:23;;;;;;;;;4.00;3.00;;;;;26.13;36.47;101630.44;5054960;28;46175;-63
2023/06/26 11:10:08;;;;;;;;;2.50;2.50;;;;;26.20;36.86;101638.97;5072588;28;46402;-62
2023/06/26 11:12:43;;;;;;;;;6.75;4.50;;;;;26.32;36.71;101634.59;5070611;28;45421;-62
2023/06/26 11:15:09;;;;;;;;;3.00;3.00;;;;;26.41;36.60;101633.97;5073774;27;45435;-62
2023/06/26 11:17:36;;;;;;;;;3.00;3.00;;;;;26.50;35.92;101633.34;5065156;28;45500;-62
2023/06/26 11:20:06;;;;;;;;;5.00;3.50;;;;;26.57;35.98;101631.97;5060954;28;45478;-62
2023/06/26 11:22:35;;;;;;;;;3.50;3.50;;;;;26.65;35.99;101642.22;5073362;28;45400;-62